createdAt,value
2018-06-16T00:00:02.753Z,8.37
2018-06-16T00:02:31.511Z,12.17
2018-06-16T00:05:00.428Z,8.80
2018-06-16T00:07:29.383Z,7.77
2018-06-16T00:09:58.171Z,8.00
2018-06-16T00:12:27.014Z,7.53
2018-06-16T00:14:55.799Z,9.63
2018-06-16T00:17:24.602Z,7.83
2018-06-16T00:19:53.384Z,8.87
2018-06-16T00:22:22.184Z,6.90
2018-06-16T00:24:52.576Z,10.13
2018-06-16T00:27:21.454Z,9.53
2018-06-16T00:29:50.351Z,10.90
2018-06-16T00:32:19.171Z,7.80
2018-06-16T00:34:47.938Z,8.00
2018-06-16T00:37:16.723Z,6.77
2018-06-16T00:39:45.477Z,11.57
2018-06-16T00:42:14.251Z,9.77
2018-06-16T00:44:43.331Z,10.77
2018-06-16T00:47:12.117Z,7.87
2018-06-16T00:49:41.129Z,9.70
2018-06-16T00:52:09.944Z,11.00
2018-06-16T00:54:38.711Z,14.80
2018-06-16T00:57:18.329Z,9.27
2018-06-16T00:59:47.194Z,7.70
2018-06-16T01:02:16.028Z,8.27
2018-06-16T01:04:44.804Z,8.20
2018-06-16T01:07:13.570Z,8.17
2018-06-16T01:09:42.433Z,8.53
2018-06-16T01:12:11.214Z,8.43
2018-06-16T01:14:39.972Z,10.50
2018-06-16T01:17:08.758Z,11.97
2018-06-16T01:19:37.557Z,7.40
2018-06-16T01:22:06.375Z,12.23
2018-06-16T01:24:35.142Z,9.87
2018-06-16T01:27:03.931Z,9.03
2018-06-16T01:29:32.682Z,8.13
2018-06-16T01:32:01.850Z,7.40
2018-06-16T01:34:30.637Z,10.83
2018-06-16T01:36:59.435Z,8.47
2018-06-16T01:39:28.201Z,7.73
2018-06-16T01:41:56.967Z,10.23
2018-06-16T01:44:25.790Z,7.90
2018-06-16T01:46:54.581Z,6.73
2018-06-16T01:49:23.343Z,6.70
2018-06-16T01:51:52.194Z,6.37
2018-06-16T01:54:21.136Z,6.77
2018-06-16T01:56:49.895Z,7.40
2018-06-16T01:59:18.895Z,6.00
2018-06-16T02:01:47.687Z,5.60
2018-06-16T02:04:16.464Z,8.40
2018-06-16T02:06:45.283Z,6.13
2018-06-16T02:09:14.041Z,6.80
2018-06-16T02:11:42.897Z,6.53
2018-06-16T02:14:11.966Z,6.37
2018-06-16T02:16:41.028Z,6.47
2018-06-16T02:19:09.923Z,6.67
2018-06-16T02:21:38.793Z,7.00
2018-06-16T02:24:07.555Z,7.00
2018-06-16T02:26:36.316Z,12.03
2018-06-16T02:29:05.147Z,6.70
2018-06-16T02:31:33.904Z,6.70
2018-06-16T02:34:02.675Z,8.67
2018-06-16T02:36:31.428Z,9.47
2018-06-16T02:39:00.307Z,7.43
2018-06-16T02:41:29.072Z,8.47
2018-06-16T02:43:57.877Z,10.00
2018-06-16T02:46:26.723Z,7.13
2018-06-16T02:48:55.514Z,6.70
2018-06-16T02:51:24.334Z,9.30
2018-06-16T02:53:53.082Z,8.70
2018-06-16T02:56:21.886Z,9.67
2018-06-16T02:58:50.663Z,11.03
2018-06-16T03:01:19.611Z,12.60
2018-06-16T03:03:48.401Z,12.43
2018-06-16T03:06:17.188Z,11.83
2018-06-16T03:08:46.016Z,8.77
2018-06-16T03:11:14.800Z,10.87
2018-06-16T03:13:43.595Z,7.53
2018-06-16T03:16:12.425Z,10.67
2018-06-16T03:18:41.232Z,10.17
2018-06-16T03:21:10.066Z,9.40
2018-06-16T03:23:38.902Z,8.03
2018-06-16T03:26:07.690Z,10.87
2018-06-16T03:28:36.613Z,7.73
2018-06-16T03:31:05.421Z,7.47
2018-06-16T03:33:34.204Z,6.87
2018-06-16T03:36:03.012Z,14.43
2018-06-16T03:38:31.804Z,6.87
2018-06-16T03:41:00.597Z,10.50
2018-06-16T03:43:29.372Z,10.40
2018-06-16T03:45:58.173Z,7.37
2018-06-16T03:48:26.978Z,9.00
2018-06-16T03:50:56.181Z,10.37
2018-06-16T03:53:24.964Z,8.43
2018-06-16T03:55:53.754Z,8.37
2018-06-16T03:58:22.578Z,10.23
2018-06-16T04:00:51.417Z,14.97
2018-06-16T04:03:20.216Z,10.93
2018-06-16T04:05:48.999Z,9.23
2018-06-16T04:08:17.880Z,10.83
2018-06-16T04:10:46.662Z,14.30
2018-06-16T04:13:15.464Z,10.17
2018-06-16T04:15:44.227Z,8.70
2018-06-16T04:18:13.012Z,8.57
2018-06-16T04:20:41.817Z,8.90
2018-06-16T04:23:10.600Z,11.33
2018-06-16T04:25:39.425Z,10.17
2018-06-16T04:28:08.188Z,11.30
2018-06-16T04:30:37.066Z,7.90
2018-06-16T04:33:06.044Z,10.40
2018-06-16T04:35:34.837Z,17.27
2018-06-16T04:38:03.628Z,13.17
2018-06-16T04:40:32.410Z,10.53
2018-06-16T04:43:01.180Z,12.43
2018-06-16T04:45:30.042Z,11.10
2018-06-16T04:47:58.776Z,10.83
2018-06-16T04:50:27.543Z,15.93
2018-06-16T04:52:56.386Z,9.17
2018-06-16T04:55:25.224Z,13.03
2018-06-16T04:57:54.036Z,8.70
2018-06-16T05:00:22.828Z,15.30
2018-06-16T05:02:51.624Z,20.07
2018-06-16T05:05:20.402Z,12.23
2018-06-16T05:07:49.232Z,11.70
2018-06-16T05:10:17.999Z,13.57
2018-06-16T05:12:46.763Z,12.57
2018-06-16T05:15:15.599Z,11.73
2018-06-16T05:17:44.375Z,13.77
2018-06-16T05:20:13.195Z,11.70
2018-06-16T05:22:41.968Z,17.33
2018-06-16T05:25:10.786Z,17.67
2018-06-16T05:27:39.813Z,11.13
2018-06-16T05:30:08.624Z,10.37
2018-06-16T05:32:37.452Z,11.00
2018-06-16T05:35:06.221Z,12.13
2018-06-16T05:37:35.101Z,19.67
2018-06-16T05:40:03.976Z,11.57
2018-06-16T05:42:32.747Z,17.50
2018-06-16T05:45:01.539Z,11.33
2018-06-16T05:47:30.321Z,13.10
2018-06-16T05:49:59.295Z,11.93
2018-06-16T05:52:28.138Z,15.73
2018-06-16T05:54:57.088Z,15.30
2018-06-16T05:57:25.878Z,13.27
2018-06-16T05:59:54.737Z,13.47
2018-06-16T06:02:23.558Z,22.80
2018-06-16T06:04:52.410Z,20.23
2018-06-16T06:07:21.194Z,18.63
2018-06-16T06:09:49.984Z,17.57
2018-06-16T06:12:18.774Z,22.03
2018-06-16T06:14:47.561Z,20.20
2018-06-16T06:17:16.378Z,21.47
2018-06-16T06:19:45.172Z,18.17
2018-06-16T06:22:14.033Z,21.03
2018-06-16T06:24:42.852Z,24.20
2018-06-16T06:27:12.294Z,27.80
2018-06-16T06:29:41.090Z,20.17
2018-06-16T06:32:10.168Z,17.93
2018-06-16T06:34:38.723Z,20.63
2018-06-16T06:37:07.563Z,14.67
2018-06-16T06:39:36.377Z,18.63
2018-06-16T06:42:05.201Z,17.30
2018-06-16T06:44:34.106Z,18.43
2018-06-16T06:47:02.904Z,16.30
2018-06-16T06:49:31.954Z,16.83
2018-06-16T06:52:00.816Z,16.17
2018-06-16T06:54:29.596Z,16.93
2018-06-16T06:56:58.382Z,14.13
2018-06-16T06:59:27.169Z,16.03
2018-06-16T07:01:55.976Z,15.47
2018-06-16T07:04:24.805Z,18.30
2018-06-16T07:06:53.673Z,15.43
2018-06-16T07:09:23.086Z,22.67
2018-06-16T07:11:51.873Z,19.03
2018-06-16T07:14:20.797Z,19.10
2018-06-16T07:16:49.590Z,19.97
2018-06-16T07:19:18.379Z,19.93
2018-06-16T07:21:47.828Z,15.17
2018-06-16T07:24:16.628Z,17.90
2018-06-16T07:26:45.503Z,18.03
2018-06-16T07:29:14.552Z,15.17
2018-06-16T07:31:43.529Z,19.77
2018-06-16T07:34:12.344Z,23.50
2018-06-16T07:36:41.333Z,24.00
2018-06-16T07:39:10.788Z,15.97
2018-06-16T07:41:39.851Z,19.07
2018-06-16T07:44:08.691Z,13.70
2018-06-16T07:46:37.518Z,15.90
2018-06-16T07:49:06.341Z,18.57
2018-06-16T07:51:35.565Z,18.60
2018-06-16T07:54:04.440Z,18.13
2018-06-16T07:56:33.308Z,22.37
2018-06-16T07:59:02.155Z,19.10
2018-06-16T08:01:30.993Z,20.37
2018-06-16T08:03:59.904Z,15.90
2018-06-16T08:06:28.764Z,15.27
2018-06-16T08:08:57.569Z,17.57
2018-06-16T08:11:26.432Z,23.77
2018-06-16T08:13:55.390Z,18.40
2018-06-16T08:16:24.239Z,28.53
2018-06-16T08:18:53.267Z,22.80
2018-06-16T08:21:22.052Z,20.30
2018-06-16T08:23:50.871Z,26.27
2018-06-16T08:26:19.665Z,19.40
2018-06-16T08:28:48.492Z,19.43
2018-06-16T08:31:17.675Z,20.37
2018-06-16T08:33:46.458Z,19.17
2018-06-16T08:36:15.418Z,20.87
2018-06-16T08:38:44.340Z,19.87
2018-06-16T08:41:13.239Z,21.60
2018-06-16T08:43:42.812Z,21.10
2018-06-16T08:46:11.635Z,26.67
2018-06-16T08:48:40.509Z,19.50
2018-06-16T08:51:09.439Z,21.77
2018-06-16T08:53:38.600Z,17.97
2018-06-16T08:56:07.704Z,22.67
2018-06-16T08:58:36.642Z,19.33
2018-06-16T09:01:05.728Z,23.03
2018-06-16T09:03:34.552Z,17.83
2018-06-16T09:06:03.367Z,22.90
2018-06-16T09:08:32.159Z,19.60
2018-06-16T09:11:00.999Z,18.33
2018-06-16T09:13:30.016Z,16.33
2018-06-16T09:15:58.923Z,20.53
2018-06-16T09:18:27.747Z,20.27
2018-06-16T09:20:56.667Z,19.67
2018-06-16T09:23:25.549Z,21.77
2018-06-16T09:25:54.440Z,24.73
2018-06-16T09:28:23.275Z,18.40
2018-06-16T09:30:52.137Z,25.13
2018-06-16T09:33:21.008Z,20.77
2018-06-16T09:35:49.929Z,22.30
2018-06-16T09:38:18.767Z,22.43
2018-06-16T09:40:47.642Z,26.67
2018-06-16T09:43:16.505Z,23.43
2018-06-16T09:45:45.307Z,22.67
2018-06-16T09:48:14.251Z,20.90
2018-06-16T09:50:43.121Z,19.00
2018-06-16T09:53:12.140Z,18.87
2018-06-16T09:55:41.045Z,21.93
2018-06-16T09:58:09.974Z,21.63
2018-06-16T10:00:41.855Z,18.90
2018-06-16T10:03:11.900Z,21.13
2018-06-16T10:05:40.815Z,15.07
2018-06-16T10:08:09.748Z,16.73
2018-06-16T10:10:38.610Z,21.37
2018-06-16T10:13:07.600Z,14.20
2018-06-16T10:15:36.482Z,17.23
2018-06-16T10:18:05.430Z,15.43
2018-06-16T10:20:34.288Z,13.63
2018-06-16T10:23:03.115Z,21.17
2018-06-16T10:25:32.008Z,18.07
2018-06-16T10:28:01.017Z,16.30
2018-06-16T10:30:29.859Z,18.13
2018-06-16T10:32:58.708Z,20.63
2018-06-16T10:35:27.549Z,16.10
2018-06-16T10:37:56.490Z,19.67
2018-06-16T10:40:25.358Z,15.30
2018-06-16T10:42:54.281Z,23.60
2018-06-16T10:45:23.186Z,22.03
2018-06-16T10:47:52.022Z,17.43
2018-06-16T10:50:21.062Z,18.20
2018-06-16T10:52:49.898Z,16.93
2018-06-16T10:55:18.749Z,20.27
2018-06-16T10:57:47.583Z,17.87
2018-06-16T11:00:16.419Z,18.67
2018-06-16T11:02:45.315Z,20.70
2018-06-16T11:05:14.274Z,15.90
2018-06-16T11:07:43.107Z,22.70
2018-06-16T11:10:11.997Z,14.93
2018-06-16T11:12:41.029Z,19.73
2018-06-16T11:15:09.856Z,22.57
2018-06-16T11:17:38.667Z,22.40
2018-06-16T11:20:07.504Z,17.60
2018-06-16T11:22:36.368Z,19.00
2018-06-16T11:25:05.348Z,18.70
2018-06-16T11:27:34.240Z,15.70
2018-06-16T11:30:03.041Z,19.37
2018-06-16T11:32:31.852Z,22.63
2018-06-16T11:35:00.736Z,35.97
2018-06-16T11:37:29.611Z,30.63
2018-06-16T11:39:58.472Z,22.80
2018-06-16T11:42:27.260Z,16.43
2018-06-16T11:44:56.298Z,17.00
2018-06-16T11:47:25.194Z,17.10
2018-06-16T11:49:54.108Z,17.30
2018-06-16T11:52:22.986Z,14.17
2018-06-16T11:54:52.030Z,16.07
2018-06-16T11:57:21.024Z,13.80
2018-06-16T11:59:49.830Z,18.53
2018-06-16T12:02:18.679Z,41.03
2018-06-16T12:04:47.539Z,31.40
2018-06-16T12:07:16.342Z,19.30
2018-06-16T12:09:45.195Z,13.97
2018-06-16T12:12:14.082Z,20.23
2018-06-16T12:14:42.913Z,20.97
2018-06-16T12:17:11.709Z,25.83
2018-06-16T12:19:40.571Z,52.77
2018-06-16T12:22:09.394Z,39.90
2018-06-16T12:24:38.356Z,17.67
2018-06-16T12:27:07.152Z,11.87
2018-06-16T12:29:36.368Z,11.60
2018-06-16T12:32:05.261Z,8.50
2018-06-16T12:34:34.079Z,9.10
2018-06-16T12:37:03.020Z,11.33
2018-06-16T12:39:31.873Z,9.40
2018-06-16T12:42:00.737Z,8.03
2018-06-16T12:44:29.593Z,8.80
2018-06-16T12:46:58.905Z,9.53
2018-06-16T12:49:27.690Z,11.63
2018-06-16T12:51:56.520Z,9.67
2018-06-16T12:54:25.360Z,9.40
2018-06-16T12:56:54.197Z,10.17
2018-06-16T12:59:23.155Z,13.43
2018-06-16T13:01:52.038Z,13.27
2018-06-16T13:04:20.941Z,11.13
2018-06-16T13:06:49.802Z,10.80
2018-06-16T13:09:18.667Z,18.53
2018-06-16T13:11:47.487Z,18.43
2018-06-16T13:14:16.285Z,12.03
2018-06-16T13:16:45.125Z,16.27
2018-06-16T13:19:13.969Z,11.97
2018-06-16T13:21:42.894Z,16.00
2018-06-16T13:24:11.714Z,12.37
2018-06-16T13:26:40.735Z,11.70
2018-06-16T13:29:09.655Z,8.63
2018-06-16T13:31:38.564Z,7.80
2018-06-16T13:34:07.483Z,6.83
2018-06-16T13:36:36.334Z,9.60
2018-06-16T13:39:07.630Z,6.30
2018-06-16T13:41:36.543Z,5.90
2018-06-16T13:44:05.459Z,4.37
2018-06-16T13:46:34.408Z,8.27
2018-06-16T13:49:03.477Z,6.83
2018-06-16T13:51:32.362Z,11.40
2018-06-16T13:54:01.244Z,5.27
2018-06-16T13:56:30.105Z,5.60
2018-06-16T13:58:58.957Z,7.80
2018-06-16T14:01:27.890Z,7.50
2018-06-16T14:03:56.743Z,5.53
2018-06-16T14:06:25.590Z,6.17
2018-06-16T14:08:54.455Z,6.63
2018-06-16T14:11:23.505Z,4.00
2018-06-16T14:13:52.434Z,5.90
2018-06-16T14:16:21.403Z,5.83
2018-06-16T14:18:50.444Z,6.07
2018-06-16T14:21:19.492Z,6.13
2018-06-16T14:23:48.440Z,4.20
2018-06-16T14:26:17.279Z,6.77
2018-06-16T14:28:46.121Z,9.50
2018-06-16T14:31:14.975Z,7.83
2018-06-16T14:33:43.833Z,10.07
2018-06-16T14:36:12.744Z,4.20
2018-06-16T14:38:41.597Z,5.93
2018-06-16T14:41:10.485Z,5.13
2018-06-16T14:43:39.403Z,3.80
2018-06-16T14:46:08.282Z,6.43
2018-06-16T14:48:37.112Z,7.03
2018-06-16T14:51:05.918Z,7.13
2018-06-16T14:53:34.779Z,12.17
2018-06-16T14:56:03.737Z,8.83
2018-06-16T14:58:32.590Z,5.97
2018-06-16T15:01:01.462Z,4.97
2018-06-16T15:03:30.271Z,5.70
2018-06-16T15:05:59.159Z,5.10
2018-06-16T15:08:28.008Z,6.00
2018-06-16T15:10:56.854Z,7.60
2018-06-16T15:13:25.856Z,10.00
2018-06-16T15:15:54.764Z,8.43
2018-06-16T15:18:23.760Z,7.20
2018-06-16T15:20:52.658Z,10.10
2018-06-16T15:23:21.513Z,6.63
2018-06-16T15:25:50.346Z,9.30
2018-06-16T15:28:19.230Z,7.70
2018-06-16T15:30:48.110Z,12.67
2018-06-16T15:33:16.962Z,10.37
2018-06-16T15:35:45.907Z,6.77
2018-06-16T15:38:14.809Z,5.67
2018-06-16T15:40:43.744Z,10.07
2018-06-16T15:43:12.590Z,7.30
2018-06-16T15:45:41.398Z,10.00
2018-06-16T15:48:10.246Z,5.77
2018-06-16T15:50:39.087Z,9.93
2018-06-16T15:53:07.921Z,8.50
2018-06-16T15:55:36.943Z,6.93
2018-06-16T15:58:05.920Z,8.70
2018-06-16T16:00:34.793Z,7.33
2018-06-16T16:03:03.658Z,8.77
2018-06-16T16:05:32.470Z,8.87
2018-06-16T16:08:01.316Z,11.10
2018-06-16T16:10:30.263Z,11.17
2018-06-16T16:12:59.150Z,12.73
2018-06-16T16:15:27.997Z,17.20
2018-06-16T16:17:56.810Z,12.43
2018-06-16T16:20:25.741Z,14.00
2018-06-16T16:22:54.582Z,14.27
2018-06-16T16:25:23.497Z,14.23
2018-06-16T16:27:52.341Z,12.20
2018-06-16T16:30:21.172Z,10.17
2018-06-16T16:32:50.097Z,11.67
2018-06-16T16:35:19.576Z,11.53
2018-06-16T16:37:48.490Z,10.33
2018-06-16T16:40:17.400Z,12.30
2018-06-16T16:42:46.356Z,11.90
2018-06-16T16:45:15.202Z,14.77
2018-06-16T16:47:44.296Z,8.17
2018-06-16T16:50:13.099Z,7.87
2018-06-16T16:52:41.889Z,6.87
2018-06-16T16:55:10.773Z,9.33
2018-06-16T16:57:39.612Z,12.67
2018-06-16T17:00:08.635Z,8.20
2018-06-16T17:02:37.476Z,10.17
2018-06-16T17:05:06.335Z,9.87
2018-06-16T17:07:35.154Z,9.57
2018-06-16T17:10:04.398Z,9.10
2018-06-16T17:12:33.181Z,10.23
2018-06-16T17:15:02.081Z,10.07
2018-06-16T17:17:30.887Z,14.93
2018-06-16T17:19:59.760Z,11.83
2018-06-16T17:22:28.637Z,15.47
2018-06-16T17:24:57.540Z,10.83
2018-06-16T17:27:26.348Z,10.30
2018-06-16T17:29:55.300Z,13.03
2018-06-16T17:32:24.269Z,12.60
2018-06-16T17:34:53.238Z,8.47
2018-06-16T17:37:22.122Z,6.87
2018-06-16T17:39:50.932Z,8.47
2018-06-16T17:42:19.773Z,6.97
2018-06-16T17:44:48.602Z,12.17
2018-06-16T17:47:17.534Z,9.80
2018-06-16T17:49:46.408Z,12.00
2018-06-16T17:52:15.290Z,14.50
2018-06-16T17:54:44.278Z,11.33
2018-06-16T17:57:13.063Z,14.83
2018-06-16T17:59:41.972Z,14.30
2018-06-16T18:02:10.773Z,17.40
2018-06-16T18:04:39.606Z,15.10
2018-06-16T18:07:08.530Z,15.90
2018-06-16T18:09:37.468Z,14.03
2018-06-16T18:12:06.526Z,14.93
2018-06-16T18:14:35.360Z,15.17
2018-06-16T18:17:04.236Z,13.97
2018-06-16T18:19:33.142Z,15.10
2018-06-16T18:22:02.319Z,11.83
2018-06-16T18:24:31.133Z,12.73
2018-06-16T18:26:59.932Z,12.93
2018-06-16T18:29:28.857Z,10.03
2018-06-16T18:31:57.660Z,9.00
2018-06-16T18:34:26.417Z,12.50
2018-06-16T18:36:55.187Z,10.93
2018-06-16T18:39:24.133Z,11.40
2018-06-16T18:41:52.903Z,10.33
2018-06-16T18:44:22.567Z,7.33
2018-06-16T18:46:51.377Z,7.43
2018-06-16T18:49:20.246Z,12.77
2018-06-16T18:51:49.131Z,6.50
2018-06-16T18:54:17.999Z,7.47
2018-06-16T18:56:46.932Z,9.60
2018-06-16T18:59:15.741Z,10.63
2018-06-16T19:01:44.637Z,12.80
2018-06-16T19:04:13.647Z,12.73
2018-06-16T19:06:42.503Z,6.73
2018-06-16T19:09:11.394Z,13.37
2018-06-16T19:11:40.754Z,10.20
2018-06-16T19:14:09.664Z,10.37
2018-06-16T19:16:38.645Z,6.53
2018-06-16T19:19:08.424Z,8.27
2018-06-16T19:21:37.257Z,11.87
2018-06-16T19:24:06.341Z,10.00
2018-06-16T19:26:35.249Z,13.10
2018-06-16T19:29:04.082Z,10.63
2018-06-16T19:31:32.940Z,10.90
2018-06-16T19:34:01.818Z,9.27
2018-06-16T19:36:30.761Z,7.10
2018-06-16T19:38:59.647Z,8.93
2018-06-16T19:41:28.504Z,11.17
2018-06-16T19:43:57.575Z,9.10
2018-06-16T19:46:26.575Z,13.87
2018-06-16T19:48:55.520Z,15.10
2018-06-16T19:51:24.390Z,10.03
2018-06-16T19:53:53.204Z,12.80
2018-06-16T19:56:22.060Z,14.97
2018-06-16T19:58:51.003Z,12.17
2018-06-16T20:01:19.846Z,22.60
2018-06-16T20:03:48.688Z,21.03
2018-06-16T20:06:17.626Z,13.03
2018-06-16T20:08:46.546Z,14.63
2018-06-16T20:11:15.352Z,16.13
2018-06-16T20:13:44.408Z,25.03
2018-06-16T20:16:13.240Z,16.00
2018-06-16T20:18:42.092Z,16.23
2018-06-16T20:21:10.987Z,17.93
2018-06-16T20:23:39.892Z,19.03
2018-06-16T20:26:08.723Z,22.50
2018-06-16T20:28:37.801Z,23.40
2018-06-16T20:31:06.713Z,17.23
2018-06-16T20:33:35.546Z,25.53
2018-06-16T20:36:04.597Z,22.40
2018-06-16T20:38:33.388Z,24.93
2018-06-16T20:41:02.220Z,29.07
2018-06-16T20:43:31.071Z,26.23
2018-06-16T20:45:59.863Z,25.43
2018-06-16T20:48:28.665Z,22.43
2018-06-16T20:50:57.825Z,27.77
2018-06-16T20:53:26.750Z,26.87
2018-06-16T20:55:55.544Z,28.20
2018-06-16T20:58:24.619Z,27.03
2018-06-16T21:00:53.499Z,25.97
2018-06-16T21:03:22.244Z,34.83
2018-06-16T21:05:51.242Z,28.03
2018-06-16T21:08:20.036Z,40.13
2018-06-16T21:10:48.880Z,24.07
2018-06-16T21:13:18.113Z,20.00
2018-06-16T21:15:47.004Z,20.53
2018-06-16T21:18:15.797Z,19.93
2018-06-16T21:20:44.683Z,20.67
2018-06-16T21:23:13.484Z,17.93
2018-06-16T21:25:42.276Z,21.87
2018-06-16T21:28:11.089Z,14.90
2018-06-16T21:30:39.973Z,13.93
2018-06-16T21:33:08.755Z,12.67
2018-06-16T21:35:37.566Z,15.30
2018-06-16T21:38:06.492Z,12.20
2018-06-16T21:40:35.287Z,10.77
2018-06-16T21:43:04.097Z,14.10
2018-06-16T21:45:33.405Z,11.83
2018-06-16T21:48:02.183Z,11.63
2018-06-16T21:50:31.058Z,12.40
2018-06-16T21:52:59.972Z,14.83
2018-06-16T21:55:28.782Z,17.70
2018-06-16T21:57:57.636Z,11.97
2018-06-16T22:00:30.547Z,15.93
2018-06-16T22:02:59.788Z,9.67
2018-06-16T22:05:28.618Z,10.70
2018-06-16T22:08:01.848Z,11.87
2018-06-16T22:10:30.691Z,15.20
2018-06-16T22:12:59.417Z,20.47
2018-06-16T22:15:28.375Z,12.57
2018-06-16T22:17:57.150Z,13.77
2018-06-16T22:20:26.140Z,12.13
2018-06-16T22:22:55.275Z,11.33
2018-06-16T22:25:24.063Z,10.63
2018-06-16T22:27:52.853Z,13.37
2018-06-16T22:30:21.685Z,14.40
2018-06-16T22:32:50.454Z,13.60
2018-06-16T22:35:19.290Z,12.23
2018-06-16T22:39:17.536Z,11.00
2018-06-16T22:41:46.454Z,15.30
2018-06-16T22:44:15.231Z,15.00
2018-06-16T22:46:44.208Z,13.10
2018-06-16T22:49:13.008Z,14.90
2018-06-16T22:51:41.812Z,11.63
2018-06-16T22:54:10.619Z,12.00
2018-06-16T22:56:39.444Z,17.00
2018-06-16T22:59:08.224Z,11.23
2018-06-16T23:01:37.015Z,9.87
2018-06-16T23:04:05.915Z,9.33
2018-06-16T23:06:34.783Z,8.20
2018-06-16T23:09:04.631Z,12.10
2018-06-16T23:11:33.409Z,11.47
2018-06-16T23:14:02.193Z,10.33
2018-06-16T23:16:31.132Z,12.20
2018-06-16T23:18:59.969Z,12.00
2018-06-16T23:21:28.725Z,7.63
2018-06-16T23:23:57.566Z,8.17
2018-06-16T23:26:26.551Z,8.27
2018-06-16T23:28:55.358Z,12.03
2018-06-16T23:31:24.320Z,7.83
2018-06-16T23:33:53.111Z,7.10
2018-06-16T23:36:21.888Z,9.77
2018-06-16T23:38:50.724Z,10.73
2018-06-16T23:41:19.536Z,9.80
2018-06-16T23:43:48.300Z,11.17
2018-06-16T23:46:17.476Z,7.03
2018-06-16T23:48:46.352Z,9.30
2018-06-16T23:51:15.130Z,11.90
2018-06-16T23:53:43.992Z,7.90
2018-06-16T23:56:12.764Z,7.53
2018-06-16T23:58:41.519Z,9.63
